createdAt,value
2022-10-10T00:00:38.898Z,67.21
2022-10-10T00:01:38.931Z,67.32
2022-10-10T00:02:38.888Z,67.41
2022-10-10T00:03:38.869Z,67.41
2022-10-10T00:04:38.862Z,67.41
2022-10-10T00:05:38.834Z,67.32
2022-10-10T00:06:38.825Z,67.41
2022-10-10T00:07:38.820Z,67.52
2022-10-10T00:08:38.813Z,67.52
2022-10-10T00:09:38.788Z,67.62
2022-10-10T00:10:38.784Z,67.76
2022-10-10T00:11:38.759Z,67.72
2022-10-10T00:12:38.772Z,67.82
2022-10-10T00:13:38.739Z,67.96
2022-10-10T00:14:38.724Z,67.96
2022-10-10T00:15:38.708Z,68.06
2022-10-10T00:16:38.706Z,67.96
2022-10-10T00:17:38.688Z,67.85
2022-10-10T00:18:38.672Z,67.76
2022-10-10T00:19:38.666Z,67.62
2022-10-10T00:20:38.653Z,67.62
2022-10-10T00:21:38.633Z,67.62
2022-10-10T00:22:38.632Z,67.62
2022-10-10T00:23:38.719Z,67.82
2022-10-10T00:24:38.608Z,67.96
2022-10-10T00:25:38.603Z,67.93
2022-10-10T00:26:38.586Z,67.93
2022-10-10T00:27:38.603Z,68.06
2022-10-10T00:28:39.006Z,68.16
2022-10-10T00:29:38.586Z,68.16
2022-10-10T00:30:38.540Z,68.06
2022-10-10T00:31:38.511Z,68.03
2022-10-10T00:32:38.498Z,68.06
2022-10-10T00:33:38.492Z,67.93
2022-10-10T00:34:38.481Z,68.03
2022-10-10T00:35:38.461Z,67.93
2022-10-10T00:36:38.451Z,67.62
2022-10-10T00:37:38.440Z,67.41
2022-10-10T00:38:38.422Z,67.41
2022-10-10T00:39:38.405Z,67.41
2022-10-10T00:40:38.413Z,67.52
2022-10-10T00:41:38.382Z,67.41
2022-10-10T00:42:38.371Z,67.41
2022-10-10T00:43:38.367Z,67.52
2022-10-10T00:44:38.351Z,67.52
2022-10-10T00:45:38.334Z,67.52
2022-10-10T00:46:38.329Z,67.82
2022-10-10T00:47:38.306Z,67.93
2022-10-10T00:48:38.293Z,68.03
2022-10-10T00:49:38.289Z,68.13
2022-10-10T00:50:38.272Z,68.13
2022-10-10T00:51:38.270Z,68.03
2022-10-10T00:52:38.253Z,68.13
2022-10-10T00:53:38.238Z,68.23
2022-10-10T00:54:38.224Z,68.23
2022-10-10T00:55:38.209Z,68.13
2022-10-10T00:56:38.202Z,68.13
2022-10-10T00:57:38.186Z,68.03
2022-10-10T00:58:38.185Z,67.93
2022-10-10T00:59:38.156Z,67.93
2022-10-10T01:00:38.192Z,67.72
2022-10-10T01:01:38.135Z,67.82
2022-10-10T01:02:38.122Z,67.93
2022-10-10T01:03:38.105Z,68.13
2022-10-10T01:04:41.753Z,68.23
2022-10-10T01:05:38.089Z,68.44
2022-10-10T01:06:38.068Z,68.44
2022-10-10T01:07:38.054Z,68.33
2022-10-10T01:08:38.054Z,68.44
2022-10-10T01:09:38.034Z,68.23
2022-10-10T01:10:38.027Z,68.23
2022-10-10T01:11:38.015Z,68.23
2022-10-10T01:12:37.996Z,68.23
2022-10-10T01:13:37.988Z,68.33
2022-10-10T01:14:37.970Z,68.13
2022-10-10T01:15:37.960Z,68.13
2022-10-10T01:16:37.955Z,68.03
2022-10-10T01:17:37.933Z,67.93
2022-10-10T01:18:37.924Z,67.79
2022-10-10T01:19:37.907Z,67.79
2022-10-10T01:20:37.897Z,68.03
2022-10-10T01:21:37.880Z,68.03
2022-10-10T01:22:37.879Z,67.93
2022-10-10T01:23:37.864Z,68.03
2022-10-10T01:24:37.847Z,68.23
2022-10-10T01:25:37.828Z,68.33
2022-10-10T01:26:37.817Z,68.54
2022-10-10T01:27:37.802Z,68.64
2022-10-10T01:28:37.848Z,68.74
2022-10-10T01:29:37.787Z,68.74
2022-10-10T01:30:37.766Z,68.98
2022-10-10T01:31:37.761Z,69.08
2022-10-10T01:32:37.747Z,69.08
2022-10-10T01:33:37.729Z,69.18
2022-10-10T01:34:37.729Z,69.38
2022-10-10T01:35:37.707Z,69.49
2022-10-10T01:36:37.691Z,69.49
2022-10-10T01:37:37.676Z,69.59
2022-10-10T01:38:37.668Z,69.59
2022-10-10T01:39:37.675Z,69.69
2022-10-10T01:40:37.670Z,69.79
2022-10-10T01:41:37.630Z,69.90
2022-10-10T01:42:37.616Z,70.10
2022-10-10T01:43:37.604Z,70.23
2022-10-10T01:44:37.590Z,70.14
2022-10-10T01:45:37.583Z,69.90
2022-10-10T01:46:37.581Z,69.90
2022-10-10T01:47:37.587Z,70.00
2022-10-10T01:48:37.542Z,70.00
2022-10-10T01:49:37.543Z,70.10
2022-10-10T01:50:37.522Z,70.20
2022-10-10T01:51:37.504Z,70.34
2022-10-10T01:52:37.499Z,70.44
2022-10-10T01:53:37.477Z,70.54
2022-10-10T01:54:37.466Z,70.51
2022-10-10T01:55:37.455Z,70.40
2022-10-10T01:56:37.441Z,70.31
2022-10-10T01:57:37.440Z,70.40
2022-10-10T01:58:37.423Z,70.40
2022-10-10T01:59:37.402Z,70.61
2022-10-10T02:00:37.444Z,70.75
2022-10-10T02:01:37.375Z,70.85
2022-10-10T02:02:37.397Z,70.75
2022-10-10T02:03:37.347Z,70.75
2022-10-10T02:04:37.359Z,70.81
2022-10-10T02:05:37.328Z,70.95
2022-10-10T02:06:37.309Z,71.05
2022-10-10T02:07:37.306Z,71.15
2022-10-10T02:08:37.284Z,71.26
2022-10-10T02:09:37.274Z,71.26
2022-10-10T02:10:37.274Z,71.36
2022-10-10T02:11:37.253Z,71.56
2022-10-10T02:12:37.236Z,71.46
2022-10-10T02:13:37.222Z,71.36
2022-10-10T02:14:37.223Z,71.46
2022-10-10T02:15:37.215Z,71.56
2022-10-10T02:16:37.234Z,71.67
2022-10-10T02:17:37.201Z,71.67
2022-10-10T02:18:37.165Z,71.77
2022-10-10T02:19:37.156Z,71.97
2022-10-10T02:20:37.143Z,71.97
2022-10-10T02:21:37.133Z,71.77
2022-10-10T02:22:37.117Z,71.53
2022-10-10T02:23:37.101Z,71.63
2022-10-10T02:24:37.085Z,71.67
2022-10-10T02:25:37.079Z,71.87
2022-10-10T02:26:37.060Z,72.17
2022-10-10T02:27:37.052Z,72.28
2022-10-10T02:28:37.200Z,72.48
2022-10-10T02:29:37.018Z,72.48
2022-10-10T02:30:37.014Z,72.48
2022-10-10T02:31:36.997Z,72.48
2022-10-10T02:32:36.982Z,72.48
2022-10-10T02:33:36.974Z,72.58
2022-10-10T02:34:36.974Z,72.69
2022-10-10T02:35:36.947Z,72.79
2022-10-10T02:36:36.938Z,72.69
2022-10-10T02:37:36.923Z,72.58
2022-10-10T02:38:36.907Z,72.58
2022-10-10T02:39:36.890Z,72.69
2022-10-10T02:40:36.900Z,72.58
2022-10-10T02:41:36.874Z,72.58
2022-10-10T02:42:36.857Z,72.69
2022-10-10T02:43:36.845Z,72.79
2022-10-10T02:44:36.831Z,72.79
2022-10-10T02:45:36.813Z,72.89
2022-10-10T02:46:36.821Z,72.99
2022-10-10T02:47:36.792Z,73.10
2022-10-10T02:48:36.778Z,73.19
2022-10-10T02:49:36.783Z,73.10
2022-10-10T02:50:36.754Z,73.19
2022-10-10T02:51:36.740Z,73.19
2022-10-10T02:52:36.743Z,73.10
2022-10-10T02:53:36.715Z,73.30
2022-10-10T02:54:36.713Z,73.40
2022-10-10T02:55:36.687Z,73.60
2022-10-10T02:56:36.681Z,73.60
2022-10-10T02:57:36.676Z,73.60
2022-10-10T02:58:36.665Z,73.74
2022-10-10T02:59:36.646Z,73.84
2022-10-10T03:00:36.650Z,73.91
2022-10-10T03:01:36.615Z,73.71
2022-10-10T03:02:36.607Z,73.71
2022-10-10T03:03:36.591Z,73.71
2022-10-10T03:04:36.660Z,73.81
2022-10-10T03:05:36.564Z,73.91
2022-10-10T03:06:36.552Z,74.15
2022-10-10T03:07:36.538Z,74.25
2022-10-10T03:08:36.528Z,74.46
2022-10-10T03:09:36.519Z,74.46
2022-10-10T03:10:36.524Z,74.46
2022-10-10T03:11:36.485Z,74.56
2022-10-10T03:12:36.484Z,74.56
2022-10-10T03:13:36.461Z,74.56
2022-10-10T03:14:36.451Z,74.66
2022-10-10T03:15:36.439Z,74.66
2022-10-10T03:16:36.440Z,74.66
2022-10-10T03:17:36.412Z,74.76
2022-10-10T03:18:36.405Z,74.76
2022-10-10T03:19:36.389Z,74.76
2022-10-10T03:20:36.389Z,74.76
2022-10-10T03:21:36.369Z,74.76
2022-10-10T03:22:36.364Z,74.76
2022-10-10T03:23:36.337Z,74.87
2022-10-10T03:24:36.319Z,74.76
2022-10-10T03:25:36.308Z,74.76
2022-10-10T03:26:36.295Z,74.97
2022-10-10T03:27:36.283Z,74.97
2022-10-10T03:28:36.331Z,75.07
2022-10-10T03:29:36.257Z,75.07
2022-10-10T03:30:36.243Z,75.07
2022-10-10T03:31:36.227Z,75.07
2022-10-10T03:32:36.218Z,75.17
2022-10-10T03:33:36.210Z,75.27
2022-10-10T03:34:36.217Z,75.37
2022-10-10T03:35:36.184Z,75.37
2022-10-10T03:36:36.168Z,75.37
2022-10-10T03:37:36.221Z,75.37
2022-10-10T03:38:36.145Z,75.37
2022-10-10T03:39:36.147Z,75.48
2022-10-10T03:40:36.129Z,75.58
2022-10-10T03:41:36.110Z,75.58
2022-10-10T03:42:36.109Z,75.58
2022-10-10T03:43:36.114Z,75.58
2022-10-10T03:44:36.101Z,75.78
2022-10-10T03:45:36.068Z,75.78
2022-10-10T03:46:36.084Z,75.89
2022-10-10T03:47:37.011Z,75.99
2022-10-10T03:48:37.010Z,75.99
2022-10-10T03:49:36.004Z,75.89
2022-10-10T03:50:35.998Z,75.99
2022-10-10T03:51:35.977Z,76.09
2022-10-10T03:52:36.501Z,76.29
2022-10-10T03:53:35.963Z,76.29
2022-10-10T03:54:35.936Z,76.43
2022-10-10T03:55:35.940Z,76.50
2022-10-10T03:56:35.917Z,76.50
2022-10-10T03:57:35.904Z,76.64
2022-10-10T03:58:35.907Z,76.84
2022-10-10T03:59:35.914Z,76.84
2022-10-10T04:00:35.880Z,76.81
2022-10-10T04:01:35.885Z,76.84
2022-10-10T04:02:35.852Z,76.94
2022-10-10T04:03:35.827Z,76.94
2022-10-10T04:04:35.839Z,77.04
2022-10-10T04:05:35.812Z,77.04
2022-10-10T04:06:35.783Z,77.25
2022-10-10T04:07:35.777Z,77.45
2022-10-10T04:08:35.766Z,77.45
2022-10-10T04:09:35.749Z,77.56
2022-10-10T04:10:35.740Z,77.66
2022-10-10T04:11:35.722Z,77.66
2022-10-10T04:12:35.711Z,77.66
2022-10-10T04:13:35.719Z,77.56
2022-10-10T04:14:35.687Z,77.45
2022-10-10T04:15:35.677Z,77.45
2022-10-10T04:16:35.682Z,77.22
2022-10-10T04:17:35.651Z,77.11
2022-10-10T04:18:35.636Z,77.11
2022-10-10T04:19:35.628Z,77.11
2022-10-10T04:20:35.608Z,77.22
2022-10-10T04:21:35.599Z,77.22
2022-10-10T04:22:35.597Z,77.11
2022-10-10T04:23:35.601Z,77.22
2022-10-10T04:24:35.556Z,77.22
2022-10-10T04:25:35.580Z,77.11
2022-10-10T04:26:35.534Z,77.01
2022-10-10T04:27:35.519Z,77.01
2022-10-10T04:28:35.539Z,77.11
2022-10-10T04:29:35.509Z,77.22
2022-10-10T04:30:35.491Z,77.22
2022-10-10T04:31:35.481Z,77.22
2022-10-10T04:32:35.454Z,77.42
2022-10-10T04:33:35.445Z,77.42
2022-10-10T04:34:35.439Z,77.22
2022-10-10T04:35:37.251Z,77.31
2022-10-10T04:36:35.425Z,77.42
2022-10-10T04:37:35.395Z,77.42
2022-10-10T04:38:35.382Z,77.42
2022-10-10T04:39:35.378Z,77.31
2022-10-10T04:40:35.372Z,77.31
2022-10-10T04:41:35.355Z,77.11
2022-10-10T04:42:35.330Z,77.11
2022-10-10T04:43:35.325Z,77.11
2022-10-10T04:44:35.341Z,76.97
2022-10-10T04:45:37.713Z,76.97
2022-10-10T04:46:35.298Z,77.22
2022-10-10T04:47:35.276Z,77.22
2022-10-10T04:48:36.211Z,77.31
2022-10-10T04:49:36.214Z,77.52
2022-10-10T04:50:35.353Z,77.31
2022-10-10T04:51:35.253Z,77.31
2022-10-10T04:52:35.368Z,77.22
2022-10-10T04:53:35.185Z,77.18
2022-10-10T04:54:35.171Z,77.18
2022-10-10T04:55:35.162Z,77.31
2022-10-10T04:56:35.157Z,77.31
2022-10-10T04:57:35.135Z,77.31
2022-10-10T04:58:35.143Z,77.28
2022-10-10T04:59:35.115Z,77.28
2022-10-10T05:00:35.104Z,77.18
2022-10-10T05:01:35.121Z,77.18
2022-10-10T05:02:35.077Z,77.38
2022-10-10T05:03:35.061Z,77.52
2022-10-10T05:04:35.002Z,77.59
2022-10-10T05:05:35.039Z,77.72
2022-10-10T05:06:35.050Z,77.72
2022-10-10T05:07:35.017Z,77.83
2022-10-10T05:08:34.958Z,77.93
2022-10-10T05:09:34.953Z,77.93
2022-10-10T05:10:34.938Z,77.93
2022-10-10T05:11:34.968Z,77.93
2022-10-10T05:12:34.955Z,77.93
2022-10-10T05:13:34.891Z,77.93
2022-10-10T05:14:34.878Z,78.03
2022-10-10T05:15:34.871Z,78.03
2022-10-10T05:16:34.860Z,78.03
2022-10-10T05:17:34.869Z,78.13
2022-10-10T05:18:34.812Z,78.23
2022-10-10T05:19:34.803Z,78.23
2022-10-10T05:20:34.797Z,78.44
2022-10-10T05:21:34.779Z,78.54
2022-10-10T05:22:34.780Z,78.64
2022-10-10T05:23:34.759Z,78.75
2022-10-10T05:24:34.743Z,78.64
2022-10-10T05:25:34.742Z,78.54
2022-10-10T05:26:36.054Z,78.54
2022-10-10T05:27:34.731Z,78.64
2022-10-10T05:28:34.745Z,78.75
2022-10-10T05:29:34.678Z,78.85
2022-10-10T05:30:34.681Z,78.95
2022-10-10T05:31:34.738Z,79.05
2022-10-10T05:32:34.645Z,78.95
2022-10-10T05:33:34.648Z,78.95
2022-10-10T05:34:34.626Z,79.05
2022-10-10T05:35:34.608Z,79.16
2022-10-10T05:36:34.590Z,79.16
2022-10-10T05:37:34.577Z,79.16
2022-10-10T05:38:34.566Z,79.36
2022-10-10T05:39:34.583Z,79.25
2022-10-10T05:40:34.557Z,79.16
2022-10-10T05:41:34.531Z,79.05
2022-10-10T05:42:34.515Z,78.95
2022-10-10T05:43:34.501Z,78.95
2022-10-10T05:44:34.490Z,78.95
2022-10-10T05:45:34.481Z,78.95
2022-10-10T05:46:34.477Z,79.05
2022-10-10T05:47:34.459Z,79.05
2022-10-10T05:48:34.437Z,78.95
2022-10-10T05:49:34.434Z,78.81
2022-10-10T05:50:34.422Z,78.71
2022-10-10T05:51:34.421Z,78.71
2022-10-10T05:52:34.401Z,78.71
2022-10-10T05:53:34.375Z,78.61
2022-10-10T05:54:34.364Z,78.61
2022-10-10T05:55:34.348Z,78.61
2022-10-10T05:56:34.340Z,78.61
2022-10-10T05:57:34.329Z,78.50
2022-10-10T05:58:34.332Z,78.61
2022-10-10T05:59:34.331Z,78.61
2022-10-10T06:00:34.292Z,78.50
2022-10-10T06:01:34.275Z,78.30
2022-10-10T06:02:34.292Z,78.16
2022-10-10T06:03:34.259Z,78.06
2022-10-10T06:04:34.262Z,77.96
2022-10-10T06:05:34.228Z,77.86
2022-10-10T06:06:34.212Z,77.86
2022-10-10T06:07:59.033Z,77.86
2022-10-10T06:08:34.193Z,77.75
2022-10-10T06:09:34.173Z,77.51
2022-10-10T06:10:34.173Z,77.31
2022-10-10T06:11:34.175Z,77.31
2022-10-10T06:12:34.148Z,77.31
2022-10-10T06:13:34.168Z,77.11
2022-10-10T06:14:34.113Z,77.00
2022-10-10T06:15:34.135Z,77.00
2022-10-10T06:16:34.096Z,76.80
2022-10-10T06:17:34.071Z,76.66
2022-10-10T06:18:34.055Z,76.46
2022-10-10T06:19:34.056Z,76.25
2022-10-10T06:20:34.035Z,76.46
2022-10-10T06:21:34.023Z,76.15
2022-10-10T06:22:34.039Z,75.92
2022-10-10T06:23:34.008Z,75.95
2022-10-10T06:24:33.993Z,75.95
2022-10-10T06:25:41.919Z,75.95
2022-10-10T06:26:33.973Z,75.92
2022-10-10T06:27:33.949Z,75.81
2022-10-10T06:28:34.004Z,75.71
2022-10-10T06:29:33.914Z,75.60
2022-10-10T06:30:33.923Z,75.95
2022-10-10T06:31:33.890Z,75.92
2022-10-10T06:32:33.892Z,75.81
2022-10-10T06:33:33.872Z,75.92
2022-10-10T06:34:33.905Z,75.81
2022-10-10T06:35:33.843Z,75.81
2022-10-10T06:36:33.829Z,75.51
2022-10-10T06:37:33.840Z,75.20
2022-10-10T06:38:33.939Z,74.96
2022-10-10T06:39:33.786Z,74.62
2022-10-10T06:40:33.822Z,74.35
2022-10-10T06:41:33.761Z,74.65
2022-10-10T06:42:33.761Z,75.06
2022-10-10T06:43:33.739Z,75.06
2022-10-10T06:44:33.725Z,74.96
2022-10-10T06:45:33.709Z,74.86
2022-10-10T06:46:33.736Z,74.86
2022-10-10T06:47:33.692Z,75.30
2022-10-10T06:48:33.685Z,75.71
2022-10-10T06:49:33.678Z,75.71
2022-10-10T06:50:33.658Z,75.51
2022-10-10T06:51:33.670Z,75.78
2022-10-10T06:52:33.906Z,75.92
2022-10-10T06:53:33.698Z,75.67
2022-10-10T06:54:33.655Z,75.16
2022-10-10T06:55:33.678Z,74.76
2022-10-10T06:56:33.602Z,75.06
2022-10-10T06:57:33.816Z,75.02
2022-10-10T06:58:33.825Z,75.02
2022-10-10T06:59:33.563Z,74.52
2022-10-10T07:00:33.553Z,74.62
2022-10-10T07:01:33.565Z,74.38
2022-10-10T07:02:33.516Z,74.18
2022-10-10T07:03:33.512Z,73.87
2022-10-10T07:04:33.499Z,73.74
2022-10-10T07:05:33.488Z,73.54
2022-10-10T07:06:34.985Z,73.13
2022-10-10T07:07:33.430Z,72.48
2022-10-10T07:08:33.421Z,71.94
2022-10-10T07:09:33.408Z,72.28
2022-10-10T07:10:33.518Z,72.14
2022-10-10T07:11:33.382Z,71.84
2022-10-10T07:12:39.597Z,72.17
2022-10-10T07:13:33.393Z,72.38
2022-10-10T07:14:33.365Z,72.14
2022-10-10T07:15:33.331Z,71.94
2022-10-10T07:16:33.623Z,72.14
2022-10-10T07:17:33.315Z,71.53
2022-10-10T07:18:33.294Z,71.91
2022-10-10T07:19:33.312Z,71.20
2022-10-10T07:20:33.289Z,70.89
2022-10-10T07:21:33.292Z,71.20
2022-10-10T07:22:33.240Z,70.96
2022-10-10T07:23:33.245Z,70.76
2022-10-10T07:24:33.252Z,70.65
2022-10-10T07:25:33.224Z,70.55
2022-10-10T07:26:33.343Z,70.99
2022-10-10T07:27:33.189Z,71.40
2022-10-10T07:28:34.150Z,72.34
2022-10-10T07:29:33.185Z,72.52
2022-10-10T07:30:33.174Z,71.91
2022-10-10T07:31:33.134Z,72.01
2022-10-10T07:32:33.145Z,71.80
2022-10-10T07:33:33.131Z,72.11
2022-10-10T07:34:33.160Z,72.11
2022-10-10T07:35:33.090Z,72.01
2022-10-10T07:36:33.085Z,72.45
2022-10-10T07:37:33.184Z,72.31
2022-10-10T07:38:33.036Z,72.11
2022-10-10T07:39:33.081Z,72.31
2022-10-10T07:40:33.016Z,71.91
2022-10-10T07:41:33.012Z,71.57
2022-10-10T07:42:33.033Z,71.57
2022-10-10T07:43:33.071Z,71.67
2022-10-10T07:44:34.688Z,71.33
2022-10-10T07:45:32.950Z,71.47
2022-10-10T07:46:32.949Z,71.36
2022-10-10T07:47:32.919Z,71.47
2022-10-10T07:48:32.934Z,71.64
2022-10-10T07:49:32.974Z,71.44
2022-10-10T07:50:32.884Z,70.59
2022-10-10T07:51:32.885Z,70.39
2022-10-10T07:52:32.856Z,70.79
2022-10-10T07:53:32.844Z,70.79
2022-10-10T07:54:32.838Z,71.23
2022-10-10T07:55:32.815Z,71.33
2022-10-10T07:56:32.798Z,71.20
2022-10-10T07:57:32.826Z,71.44
2022-10-10T07:58:32.799Z,71.30
2022-10-10T07:59:32.777Z,70.86
2022-10-10T08:00:32.762Z,71.00
2022-10-10T08:01:32.787Z,71.70
2022-10-10T08:02:32.751Z,70.76
2022-10-10T08:03:32.818Z,70.86
2022-10-10T08:04:32.740Z,70.21
2022-10-10T08:05:32.717Z,70.76
2022-10-10T08:06:32.681Z,70.96
2022-10-10T08:07:32.912Z,71.50
2022-10-10T08:08:34.516Z,71.80
2022-10-10T08:09:32.684Z,71.70
2022-10-10T08:10:32.643Z,71.91
2022-10-10T08:11:32.621Z,72.41
2022-10-10T08:12:32.605Z,72.52
2022-10-10T08:13:32.609Z,72.11
2022-10-10T08:14:32.811Z,71.88
2022-10-10T08:15:34.040Z,71.47
2022-10-10T08:16:32.590Z,71.57
2022-10-10T08:17:32.716Z,71.37
2022-10-10T08:18:32.622Z,71.67
2022-10-10T08:19:32.531Z,72.21
2022-10-10T08:20:32.512Z,72.52
2022-10-10T08:21:32.577Z,72.28
2022-10-10T08:22:32.466Z,72.38
2022-10-10T08:23:32.466Z,72.28
2022-10-10T08:24:32.445Z,71.67
2022-10-10T08:25:32.476Z,72.48
2022-10-10T08:26:32.423Z,71.84
2022-10-10T08:27:32.433Z,71.00
2022-10-10T08:28:32.460Z,71.03
2022-10-10T08:29:32.388Z,71.30
2022-10-10T08:30:32.405Z,71.30
2022-10-10T08:31:32.363Z,71.94
2022-10-10T08:32:32.357Z,71.20
2022-10-10T08:33:32.361Z,70.86
2022-10-10T08:34:32.329Z,71.40
2022-10-10T08:35:32.320Z,70.76
2022-10-10T08:36:32.310Z,70.36
2022-10-10T08:37:36.553Z,70.15
2022-10-10T08:38:32.263Z,70.05
2022-10-10T08:39:32.286Z,70.69
2022-10-10T08:40:32.250Z,71.00
2022-10-10T08:41:32.240Z,71.30
2022-10-10T08:42:33.679Z,71.20
2022-10-10T08:43:32.229Z,71.00
2022-10-10T08:44:32.194Z,71.00
2022-10-10T08:45:32.227Z,71.06
2022-10-10T08:46:32.187Z,70.79
2022-10-10T08:47:32.150Z,71.09
2022-10-10T08:48:32.133Z,70.76
2022-10-10T08:49:32.151Z,71.20
2022-10-10T08:50:32.146Z,71.00
2022-10-10T08:51:32.136Z,71.30
2022-10-10T08:52:32.088Z,71.40
2022-10-10T08:53:32.098Z,71.50
2022-10-10T08:54:32.067Z,71.73
2022-10-10T08:55:32.062Z,71.70
2022-10-10T08:56:32.073Z,71.60
2022-10-10T08:57:32.047Z,71.06
2022-10-10T08:58:32.020Z,70.15
2022-10-10T08:59:32.011Z,70.65
2022-10-10T09:00:32.035Z,70.25
2022-10-10T09:01:32.073Z,69.95
2022-10-10T09:03:05.823Z,70.05
2022-10-10T09:03:32.096Z,69.51
2022-10-10T09:04:31.947Z,69.44
2022-10-10T09:05:31.937Z,69.41
2022-10-10T09:06:31.929Z,69.24
2022-10-10T09:07:31.891Z,70.15
2022-10-10T09:08:32.556Z,69.61
2022-10-10T09:09:31.944Z,69.01
2022-10-10T09:10:31.853Z,69.54
2022-10-10T09:11:31.871Z,68.90
2022-10-10T09:12:31.895Z,69.01
2022-10-10T09:13:31.835Z,69.10
2022-10-10T09:14:31.847Z,68.67
2022-10-10T09:15:31.812Z,68.37
2022-10-10T09:16:31.787Z,68.33
2022-10-10T09:17:31.766Z,67.83
2022-10-10T09:18:31.761Z,68.03
2022-10-10T09:19:31.747Z,67.83
2022-10-10T09:20:31.739Z,67.52
2022-10-10T09:21:31.759Z,67.12
2022-10-10T09:22:31.710Z,68.19
2022-10-10T09:23:31.683Z,68.19
2022-10-10T09:24:31.922Z,68.19
2022-10-10T09:25:31.704Z,68.19
2022-10-10T09:26:31.648Z,68.19
2022-10-10T09:27:31.683Z,68.19
2022-10-10T09:28:31.721Z,68.06
2022-10-10T09:29:31.619Z,68.06
2022-10-10T09:30:31.624Z,68.06
2022-10-10T09:31:31.587Z,67.46
2022-10-10T09:32:31.594Z,67.35
2022-10-10T09:33:31.639Z,67.22
2022-10-10T09:34:31.585Z,66.52
2022-10-10T09:35:32.527Z,67.02
2022-10-10T09:36:31.575Z,67.12
2022-10-10T09:37:46.340Z,67.22
2022-10-10T09:38:31.514Z,66.92
2022-10-10T09:39:31.508Z,66.89
2022-10-10T09:40:32.043Z,66.72
2022-10-10T09:41:31.474Z,66.72
2022-10-10T09:42:31.438Z,67.02
2022-10-10T09:43:31.443Z,66.82
2022-10-10T09:44:31.609Z,67.43
2022-10-10T09:45:32.451Z,67.22
2022-10-10T09:46:31.414Z,66.48
2022-10-10T09:47:31.389Z,65.84
2022-10-10T09:48:31.387Z,66.25
2022-10-10T09:49:31.369Z,66.15
2022-10-10T09:50:31.950Z,65.84
2022-10-10T09:51:31.345Z,65.95
2022-10-10T09:52:31.324Z,65.84
2022-10-10T09:53:31.307Z,65.84
2022-10-10T09:54:31.310Z,65.81
2022-10-10T09:55:32.050Z,64.98
2022-10-10T09:56:32.007Z,64.84
2022-10-10T09:57:31.289Z,65.61
2022-10-10T09:58:31.279Z,65.11
2022-10-10T09:59:31.230Z,64.90
2022-10-10T10:00:32.046Z,64.07
2022-10-10T10:01:31.260Z,63.73
2022-10-10T10:02:31.210Z,63.10
2022-10-10T10:03:31.229Z,63.00
2022-10-10T10:04:31.199Z,63.40
2022-10-10T10:05:31.927Z,63.70
2022-10-10T10:06:31.146Z,63.70
2022-10-10T10:07:31.166Z,62.90
2022-10-10T10:08:31.114Z,63.26
2022-10-10T10:09:31.129Z,63.46
2022-10-10T10:10:31.928Z,63.70
2022-10-10T10:11:31.085Z,63.46
2022-10-10T10:12:31.084Z,63.56
2022-10-10T10:13:31.066Z,64.00
2022-10-10T10:14:31.059Z,64.61
2022-10-10T10:15:31.060Z,63.84
2022-10-10T10:16:31.036Z,63.67
2022-10-10T10:17:31.004Z,64.17
2022-10-10T10:18:30.988Z,63.53
2022-10-10T10:19:31.007Z,64.07
2022-10-10T10:20:30.969Z,64.61
2022-10-10T10:21:31.155Z,64.47
2022-10-10T10:22:32.547Z,64.27
2022-10-10T10:23:30.928Z,64.37
2022-10-10T10:24:30.939Z,63.93
2022-10-10T10:25:31.733Z,63.53
2022-10-10T10:26:30.894Z,63.73
2022-10-10T10:27:30.897Z,63.73
2022-10-10T10:28:30.972Z,63.64
2022-10-10T10:29:30.901Z,63.53
2022-10-10T10:30:30.863Z,64.07
2022-10-10T10:31:30.841Z,64.04
2022-10-10T10:32:30.839Z,63.96
2022-10-10T10:33:30.857Z,64.27
2022-10-10T10:34:30.841Z,64.07
2022-10-10T10:35:30.808Z,63.84
2022-10-10T10:36:30.782Z,63.73
2022-10-10T10:37:30.789Z,63.93
2022-10-10T10:38:31.032Z,63.84
2022-10-10T10:39:31.071Z,64.17
2022-10-10T10:40:30.740Z,64.98
2022-10-10T10:41:30.956Z,65.11
2022-10-10T10:42:30.701Z,65.18
2022-10-10T10:43:30.663Z,64.98
2022-10-10T10:44:30.666Z,65.21
2022-10-10T10:45:30.710Z,65.61
2022-10-10T10:46:30.702Z,65.38
2022-10-10T10:47:30.636Z,65.38
2022-10-10T10:48:30.619Z,65.48
2022-10-10T10:49:30.593Z,65.81
2022-10-10T10:50:30.588Z,65.81
2022-10-10T10:51:30.659Z,65.48
2022-10-10T10:52:32.338Z,64.95
2022-10-10T10:53:35.165Z,65.25
2022-10-10T10:54:30.761Z,64.81
2022-10-10T10:55:32.901Z,64.61
2022-10-10T10:56:30.539Z,64.61
2022-10-10T10:57:40.496Z,64.51
2022-10-10T10:59:05.764Z,64.21
2022-10-10T11:00:20.548Z,64.28
2022-10-10T11:01:54.676Z,64.11
2022-10-10T11:02:54.152Z,63.81
2022-10-10T11:05:20.936Z,64.54
2022-10-10T11:05:36.737Z,64.41
2022-10-10T11:05:45.414Z,64.31
2022-10-10T11:06:49.384Z,64.44
2022-10-10T11:07:40.089Z,63.87
2022-10-10T11:08:40.076Z,63.24
2022-10-10T11:09:55.145Z,62.64
2022-10-10T11:10:55.180Z,63.17
2022-10-10T11:11:39.571Z,63.50
2022-10-10T11:12:39.754Z,63.33
2022-10-10T11:13:39.761Z,63.30
2022-10-10T11:14:39.736Z,62.87
2022-10-10T11:16:06.081Z,62.64
2022-10-10T11:16:54.943Z,62.77
2022-10-10T11:17:39.689Z,63.20
2022-10-10T11:18:39.678Z,63.30
2022-10-10T11:19:40.362Z,62.66
2022-10-10T11:20:39.938Z,62.37
2022-10-10T11:21:40.284Z,62.57
2022-10-10T11:22:40.572Z,62.77
2022-10-10T11:23:39.562Z,62.74
2022-10-10T11:24:40.348Z,62.26
2022-10-10T11:25:40.294Z,62.06
2022-10-10T11:26:39.578Z,62.16
2022-10-10T11:27:40.516Z,62.06
2022-10-10T11:28:39.639Z,62.06
2022-10-10T11:29:39.526Z,62.57
2022-10-10T11:30:39.518Z,61.66
2022-10-10T11:31:39.466Z,62.46
2022-10-10T11:32:39.484Z,61.93
2022-10-10T11:33:39.440Z,62.13
2022-10-10T11:34:39.438Z,61.80
2022-10-10T11:35:39.420Z,61.10
2022-10-10T11:36:39.430Z,61.40
2022-10-10T11:37:39.516Z,61.53
2022-10-10T11:38:39.402Z,61.70
2022-10-10T11:39:39.406Z,60.77
2022-10-10T11:40:39.373Z,61.03
2022-10-10T11:41:39.622Z,61.93
2022-10-10T11:42:39.395Z,61.86
2022-10-10T11:43:39.343Z,61.76
2022-10-10T11:44:39.398Z,61.46
2022-10-10T11:45:39.307Z,61.36
2022-10-10T11:46:39.308Z,61.56
2022-10-10T11:47:39.279Z,61.43
2022-10-10T11:48:39.263Z,62.16
2022-10-10T11:49:39.301Z,62.06
2022-10-10T11:50:40.043Z,61.25
2022-10-10T11:51:39.270Z,61.76
2022-10-10T11:52:39.204Z,61.53
2022-10-10T11:53:39.194Z,62.06
2022-10-10T11:54:39.179Z,62.26
2022-10-10T11:55:39.161Z,62.04
2022-10-10T11:56:39.187Z,61.96
2022-10-10T11:57:40.169Z,62.24
2022-10-10T11:58:39.136Z,62.66
2022-10-10T11:59:39.242Z,62.54
2022-10-10T12:00:39.199Z,62.21
2022-10-10T12:01:39.105Z,61.80
2022-10-10T12:02:39.111Z,62.24
2022-10-10T12:03:40.114Z,61.80
2022-10-10T12:04:39.063Z,61.60
2022-10-10T12:05:39.051Z,62.66
2022-10-10T12:06:39.280Z,63.27
2022-10-10T12:07:39.016Z,62.87
2022-10-10T12:08:39.092Z,63.50
2022-10-10T12:09:39.063Z,63.60
2022-10-10T12:10:38.982Z,63.78
2022-10-10T12:11:38.958Z,63.57
2022-10-10T12:12:38.961Z,63.70
2022-10-10T12:13:38.940Z,63.67
2022-10-10T12:14:38.974Z,63.67
2022-10-10T12:15:42.731Z,63.24
2022-10-10T12:16:39.010Z,63.04
2022-10-10T12:17:38.949Z,62.91
2022-10-10T12:18:38.881Z,62.71
2022-10-10T12:19:38.890Z,63.24
2022-10-10T12:20:38.956Z,63.31
2022-10-10T12:21:39.078Z,63.01
2022-10-10T12:22:38.888Z,63.11
2022-10-10T12:23:38.831Z,63.01
2022-10-10T12:24:42.673Z,63.65
2022-10-10T12:25:38.799Z,64.48
2022-10-10T12:26:38.791Z,64.69
2022-10-10T12:27:38.803Z,64.48
2022-10-10T12:28:38.858Z,64.48
2022-10-10T12:29:38.756Z,64.78
2022-10-10T12:30:38.757Z,64.45
2022-10-10T12:31:38.727Z,64.35
2022-10-10T12:32:38.769Z,64.05
2022-10-10T12:33:38.718Z,64.25
2022-10-10T12:34:49.194Z,64.48
2022-10-10T12:35:38.647Z,64.78
2022-10-10T12:36:38.635Z,64.89
2022-10-10T12:37:38.618Z,64.98
2022-10-10T12:38:38.638Z,65.49
2022-10-10T12:39:38.687Z,65.49
2022-10-10T12:40:38.593Z,65.49
2022-10-10T12:41:40.441Z,65.36
2022-10-10T12:42:38.562Z,65.36
2022-10-10T12:43:38.604Z,65.59
2022-10-10T12:44:38.577Z,65.69
2022-10-10T12:45:38.530Z,65.99
2022-10-10T12:46:38.523Z,66.09
2022-10-10T12:48:03.450Z,66.09
2022-10-10T12:48:38.497Z,65.99
2022-10-10T12:49:38.518Z,65.99
2022-10-10T12:50:38.507Z,66.19
2022-10-10T12:51:38.449Z,65.66
2022-10-10T12:52:38.449Z,65.33
2022-10-10T12:53:38.433Z,65.33